Stites, ID (83552)

8:06 AM PDT on September 02, 2014 (GMT -0700)
Kamiah Airport | Change Station
CLOSE
Current Station
Personal Weather Station
Location: Kamiah, ID
Elevation: 1194 ft
Nearby Weather Stations

Elev 1194 ft 46.22 °N, 116.01 °W | Updated 2 seconds ago

Clear
Clear
75.2 °F
Feels Like 78 °F
N
0.0
Wind Variable Wind from North
Gusts 0.0 mph

Today
High -- | Low -- °F
--% Chance of Precip.
Yesterday
High -- | Low -- °F
Precip. -- in
6:05 AM 7:20 PM
First Quarter, 52% visible
Pressure 29.88 in
Visibility 10.0 miles
Clouds Clear
Heat Index 78 °F
Dew Point 54 °F
Humidity 47%
Rainfall 0.00 in
Snow Depth Not available.
UV 1 out of 12
Pollen 6.90 out of 12
Air Quality Not available.
Flu Activity Not available.
METAR KLWS 021456Z 05004KT 10SM CLR 14/07 A2990 RMK AO2 SLP118 T01440067 58001

More Conditions Fewer Conditions

Pressure 29.88 in
Visibility 10.0 miles
Clouds Clear
Heat Index 78 °F
Dew Point 54 °F
Humidity 47%
Rainfall 0.00 in
Snow Depth Not available.
UV 1 out of 12
Pollen 6.90 out of 12
Air Quality Not available.
Flu Activity Not available.
METAR KLWS 021456Z 05004KT 10SM CLR 14/07 A2990 RMK AO2 SLP118 T01440067 58001

More Conditions Fewer Conditions

10-Day Weather Forecast

Almanac

Astronomy

Sep. 02, 2014 Rise Set
Actual Time 6:05 AM PDT 7:20 PM PDT
Civil Twilight 5:34 AM PDT 7:51 PM PDT
Nautical Twilight 4:57 AM PDT 8:28 PM PDT
Astronomical Twilight 4:18 AM PDT 9:07 PM PDT
Moon 2:17 PM PDT 11:54 PM PDT
Length of Visible Light 14h 16m
Length of Day
13h 14m
Tomorrow will be 3m 9s shorter.
First Quarter, 52% of the Moon is Illuminated
Today
First Quarter
Sep 8
Full
Sep 15
Last Quarter
Sep 24
New
Oct 1
First Quarter

Today's Extremes

State Highs State Lows

Community

WunderPhotos

Upload Photos

1,749,688 photos uploaded!

WunderBlogs® & News

Nearby

Snow Depth

Station Depth Elevation
Hemlock Butte 0 in 5810 ft
Crater Meadows 0 in 5960 ft
Elk Butte 0 in 5690 ft
Cool Creek 0 in 6280 ft
Sherwin 1 in 3200 ft

Earthquake Activity

City Distance Mag. Time & Date
No recent earthquake activity has been reported nearby.
Minimum magnitude displayed is 2.5.

Coastal Water Temperatures

Place Temperature
No Stations Reporting

Nearby Weather Stations